Latest Weather Observations for Sheoaks

IDV60801

Issued at 3:02 pm EST Sunday 31 July 2016 (issued every 30 minutes, with the page automatically refreshed every 10 minutes)

About weather observations | Map of weather stations | Latest weather observations for VIC | Other Formats
Station Details ID: 087168 Name: SHEOAKS Lat: -37.91 Lon: 144.13 Height: 236.7 m
Data from the previous 72 hours. | See also: Recent months at Sheoaks
Date/Time
EST
Temp
°C
App
Temp
°C
Dew
Point
°C
Rel
Hum
%
Delta-T
°C
Wind Press
QNH
hPa
Press
MSL
hPa
Rain since
9am
mm
Dir  Spd
km/h
Gust
km/h
Spd
kts
Gust
kts
31/03:00pm 14.0 10.4 3.2 48 4.9 N 11 17 6 9 1013.9 1014.3 0.0
31/02:30pm 13.8 10.4 4.1 52 4.5 NW 11 19 6 10 1014.1 1014.5 0.0
31/02:00pm 13.7 9.7 2.9 48 4.9 NNW 13 20 7 11 1014.4 1014.8 0.0
31/01:30pm 13.8 10.5 4.4 53 4.4 NNW 11 17 6 9 1014.7 1015.1 0.0
31/01:00pm 13.4 11.0 4.3 54 4.2 WNW 6 11 3 6 1015.0 1015.4 0.0
31/12:30pm 13.4 10.9 4.8 56 4.0 WSW 7 13 4 7 1015.4 1015.8 0.0
31/12:00pm 13.1 10.8 5.5 60 3.6 W 7 13 4 7 1015.8 1016.2 0.0
31/11:30am 12.9 9.9 5.8 62 3.4 NW 11 19 6 10 1016.2 1016.5 0.0
31/11:00am 12.6 10.0 6.0 64 3.1 NW 9 17 5 9 1016.4 1016.7 0.0
31/10:30am 12.1 9.7 6.8 70 2.6 NW 9 17 5 9 1016.4 1016.7 0.0
31/10:00am 11.5 9.1 6.8 73 2.3 NW 9 17 5 9 1016.4 1016.7 0.0
31/09:30am 10.8 8.5 7.5 80 1.6 NNW 9 13 5 7 1016.5 1016.8 0.0
31/09:00am 10.0 8.2 7.9 87 1.0 NNW 7 11 4 6 1016.4 1016.7 1.0
31/08:30am 9.2 7.3 7.6 90 0.8 NW 7 13 4 7 1016.2 1016.5 1.0
31/08:00am 8.7 6.7 7.3 91 0.7 NW 7 11 4 6 1015.7 1016.1 1.0
31/07:30am 8.9 6.7 7.7 92 0.6 NW 9 13 5 7 1015.4 1015.8 1.0
31/07:00am 8.7 6.0 7.5 92 0.6 NW 11 13 6 7 1015.0 1015.4 1.0
31/06:30am 9.1 6.8 7.5 90 0.8 NW 9 13 5 7 1014.6 1015.0 1.0
31/06:00am 9.5 7.3 7.8 89 0.8 NW 9 19 5 10 1014.1 1014.5 1.0
31/05:30am 10.0 7.5 8.1 88 0.9 WNW 11 20 6 11 1013.9 1014.3 1.0
31/05:00am 10.6 7.5 8.9 89 0.9 WNW 15 22 8 12 1013.7 1014.1 1.0
31/04:30am 10.1 7.8 9.0 93 0.6 WNW 11 20 6 11 1013.3 1013.6 1.0
31/04:00am 10.0 6.5 8.9 93 0.5 NW 17 26 9 14 1013.1 1013.4 1.0
31/03:30am 10.1 6.2 8.7 91 0.7 NW 19 30 10 16 1012.9 1013.2 0.6
31/03:00am 10.1 5.6 8.7 91 0.7 NW 22 35 12 19 1012.5 1012.8 0.6
31/02:30am 10.6 5.7 8.4 86 1.1 NW 24 37 13 20 1012.6 1012.9 0.2
31/02:00am 11.0 5.9 7.5 79 1.7 NW 24 37 13 20 1012.5 1012.8 0.0
31/01:30am 10.8 3.9 7.1 78 1.8 NNW 33 54 18 29 1012.0 1012.3 0.0
31/01:00am 10.9 3.6 7.2 78 1.8 NNW 35 54 19 29 1011.3 1011.7 0.0
31/12:36am 11.0 3.3 7.3 78 1.8 NNW 37 56 20 30 1011.7 1012.0 0.0
31/12:30am 11.1 3.4 7.2 77 1.9 NNW 37 56 20 30 1011.6 1011.9 0.0
31/12:00am 11.7 4.7 6.8 72 2.4 NNW 33 59 18 32 1012.4 1012.7 0.0
 
Date/Time
EST
Temp
°C
App
Temp
°C
Dew
Point
°C
Rel
Hum
%
Delta-T
°C
Wind Press
QNH
hPa
Press
MSL
hPa
Rain since
9am
mm
Dir  Spd
km/h
Gust
km/h
Spd
kts
Gust
kts
30/11:30pm 11.9 4.5 6.6 70 2.5 NNW 35 54 19 29 1012.0 1012.3 0.0
30/11:00pm 12.1 3.9 6.4 68 2.7 NNW 39 70 21 38 1011.7 1012.0 0.0
30/10:30pm 12.1 3.6 6.8 70 2.6 NNW 41 63 22 34 1011.6 1011.9 0.0
30/10:00pm 12.2 2.7 6.9 70 2.6 NNW 46 69 25 37 1011.3 1011.7 0.0
30/09:30pm 12.1 3.3 7.2 72 2.4 NNW 43 65 23 35 1011.8 1012.1 0.0
30/09:26pm 12.1 3.6 7.0 71 2.5 NNW 41 65 22 35 1011.8 1012.1 0.0
30/09:00pm 11.8 4.1 7.3 74 2.2 NNW 37 54 20 29 1012.3 1012.6 0.0
30/08:30pm 12.1 4.4 7.2 72 2.4 NNW 37 56 20 30 1012.0 1012.3 0.0
30/08:05pm 12.1 4.8 7.0 71 2.5 NNW 35 59 19 32 1011.6 1011.9 0.0
30/08:00pm 12.2 5.3 7.1 71 2.5 N 33 52 18 28 1011.6 1011.9 0.0
30/07:30pm 12.1 4.8 7.0 71 2.5 NNW 35 46 19 25 1011.7 1012.0 0.0
30/07:00pm 12.1 4.0 7.0 71 2.5 NNW 39 57 21 31 1011.9 1012.2 0.0
30/06:38pm 12.4 4.6 6.7 68 2.8 NNW 37 61 20 33 1012.0 1012.3 0.0
30/06:30pm 12.1 4.7 6.8 70 2.6 NNW 35 52 19 28 1012.4 1012.7 0.0
30/06:12pm 11.7 4.9 7.0 73 2.3 NNW 32 52 17 28 1012.3 1012.6 0.0
30/06:00pm 11.8 4.4 6.9 72 2.4 NNW 35 52 19 28 1012.3 1012.6 0.0
30/05:30pm 12.0 5.0 6.7 70 2.6 NNW 33 59 18 32 1011.7 1012.0 0.0
30/05:00pm 11.6 4.2 6.9 73 2.3 NNW 35 56 19 30 1011.7 1012.0 0.0
30/04:33pm 11.8 5.7 6.7 71 2.5 NNW 28 50 15 27 1012.3 1012.6 0.0
30/04:30pm 11.8 6.1 6.7 71 2.5 NNW 26 39 14 21 1012.5 1012.8 0.0
30/04:00pm 12.0 7.5 6.9 71 2.5 NNW 20 39 11 21 1013.2 1013.5 0.0
30/03:30pm 11.6 7.7 6.9 73 2.3 NNW 17 33 9 18 1014.2 1014.6 0.0
30/03:00pm 11.6 7.0 6.7 72 2.4 NNW 20 32 11 17 1014.6 1015.0 0.0
30/02:47pm 11.6 5.5 6.7 72 2.4 NNW 28 50 15 27 1014.2 1014.6 0.0
30/02:30pm 11.8 6.6 7.1 73 2.3 NNW 24 41 13 22 1014.5 1014.9 0.0
30/02:00pm 12.3 6.8 7.6 73 2.3 N 26 44 14 24 1014.9 1015.3 0.0
30/01:30pm 11.4 6.5 7.1 75 2.1 N 22 33 12 18 1015.6 1016.0 0.0
30/01:00pm 11.1 6.2 6.8 75 2.1 NNW 22 43 12 23 1017.2 1017.6 0.0
30/12:30pm 11.2 5.5 6.7 74 2.2 NNW 26 43 14 23 1017.5 1017.9 0.0
30/12:00pm 11.4 5.4 6.9 74 2.2 NNW 28 43 15 23 1017.5 1017.9 0.0
30/11:31am 11.6 5.7 7.3 75 2.1 NNW 28 46 15 25 1017.9 1018.3 0.0
30/11:30am 11.6 5.3 7.3 75 2.1 NNW 30 46 16 25 1017.9 1018.3 0.0
30/11:00am 11.7 7.0 7.6 76 2.0 NNW 22 37 12 20 1018.4 1018.8 0.0
30/10:30am 11.6 7.5 7.9 78 1.8 NNW 19 32 10 17 1018.8 1019.2 0.0
30/10:00am 11.2 7.8 7.7 79 1.7 NNW 15 24 8 13 1019.2 1019.6 0.0
30/09:30am 10.6 7.2 7.7 82 1.4 NNW 15 20 8 11 1019.6 1020.0 0.0
30/09:00am 9.9 7.1 8.5 91 0.7 N 13 22 7 12 1020.1 1020.5 1.2
30/08:30am 7.8 5.1 7.5 98 0.1 NNW 11 17 6 9 1020.0 1020.4 1.2
30/08:00am 5.6 3.4 5.3 98 0.1 N 6 7 3 4 1020.2 1020.6 1.2
30/07:30am 5.0 2.7 4.7 98 0.1 N 6 7 3 4 1020.2 1020.6 1.2
30/07:00am 6.2 4.9 5.9 98 0.1 NNE 2 4 1 2 1020.5 1020.9 1.2
30/06:30am 5.4 3.0 5.1 98 0.1 N 7 9 4 5 1020.6 1021.0 1.2
30/06:00am 5.6 3.2 5.2 97 0.2 NNW 7 9 4 5 1020.8 1021.2 1.2
30/05:30am 5.5 3.1 5.1 97 0.2 NNW 7 9 4 5 1020.8 1021.2 1.2
30/05:00am 6.2 3.9 5.8 97 0.2 N 7 9 4 5 1020.8 1021.2 1.2
30/04:30am 6.9 4.3 6.3 96 0.3 N 9 11 5 6 1020.8 1021.2 1.2
30/04:00am 7.1 5.0 6.5 96 0.3 N 7 11 4 6 1021.0 1021.4 1.2
30/03:30am 7.2 4.7 6.5 95 0.3 NNW 9 11 5 6 1020.9 1021.3 1.2
30/03:00am 7.7 5.6 6.8 94 0.4 NNW 7 9 4 5 1021.0 1021.4 1.2
30/02:30am 8.3 6.0 7.4 94 0.4 NNW 9 13 5 7 1021.2 1021.6 1.2
30/02:00am 8.6 6.3 7.5 93 0.5 NNW 9 13 5 7 1021.4 1021.8 1.2
30/01:30am 9.0 6.4 7.9 93 0.5 NNW 11 15 6 8 1021.4 1021.8 1.2
30/01:00am 9.1 6.9 8.0 93 0.5 NNW 9 15 5 8 1021.5 1021.9 1.2
30/12:30am 9.4 6.9 8.2 92 0.6 NW 11 17 6 9 1021.7 1022.1 1.2
30/12:00am 9.7 7.7 8.5 92 0.6 NW 9 15 5 8 1021.8 1022.2 1.2
 
Date/Time
EST
Temp
°C
App
Temp
°C
Dew
Point
°C
Rel
Hum
%
Delta-T
°C
Wind Press
QNH
hPa
Press
MSL
hPa
Rain since
9am
mm
Dir  Spd
km/h
Gust
km/h
Spd
kts
Gust
kts
29/11:30pm 9.6 7.9 8.4 92 0.6 NW 7 11 4 6 1021.7 1022.1 1.2
29/11:00pm 9.9 7.9 8.7 92 0.6 NW 9 11 5 6 1021.9 1022.3 1.2
29/10:30pm 10.1 8.7 8.9 92 0.6 NW 6 9 3 5 1021.9 1022.3 1.2
29/10:00pm 9.9 7.9 8.7 92 0.6 NW 9 15 5 8 1021.8 1022.2 1.2
29/09:30pm 9.8 7.4 8.6 92 0.6 NW 11 15 6 8 1021.8 1022.2 1.2
29/09:00pm 9.9 7.9 8.5 91 0.7 NW 9 13 5 7 1021.7 1022.1 1.2
29/08:30pm 10.2 7.8 8.6 90 0.8 NW 11 15 6 8 1021.6 1022.0 1.2
29/08:00pm 10.6 8.7 8.9 89 0.8 NW 9 13 5 7 1021.4 1021.8 1.2
29/07:30pm 10.5 8.2 8.9 90 0.8 NW 11 17 6 9 1021.1 1021.5 1.2
29/07:00pm 10.2 7.8 8.6 90 0.8 NNW 11 15 6 8 1020.9 1021.3 1.2
29/06:30pm 10.5 8.9 8.9 90 0.8 NW 7 9 4 5 1020.7 1021.1 1.2
29/06:00pm 10.7 8.8 9.0 89 0.9 WNW 9 13 5 7 1020.5 1020.9 1.2
29/05:30pm 11.1 8.9 9.2 88 1.0 W 11 19 6 10 1020.3 1020.7 1.2
29/05:00pm 11.3 9.0 9.0 86 1.2 W 11 19 6 10 1019.9 1020.3 1.2
29/04:30pm 11.8 8.9 9.5 86 1.2 WNW 15 24 8 13 1019.7 1020.1 1.2
29/04:00pm 11.6 8.8 9.9 89 0.9 WNW 15 24 8 13 1019.6 1020.0 1.2
29/03:30pm 11.3 8.5 9.9 91 0.7 W 15 22 8 12 1019.6 1020.0 1.0
29/03:00pm 10.5 6.1 9.1 91 0.7 W 22 37 12 20 1019.3 1019.7 1.0
29/02:30pm 13.0 8.6 9.1 77 2.0 WNW 22 32 12 17 1018.8 1019.2 0.0
29/02:00pm 12.6 8.6 9.2 80 1.7 WNW 20 32 11 17 1018.9 1019.3 0.0
29/01:30pm 12.4 8.4 8.9 79 1.8 WNW 20 30 11 16 1019.1 1019.5 0.0
29/01:06pm 12.3 6.7 8.6 78 1.9 WNW 28 46 15 25 1019.4 1019.8 0.0
29/01:00pm 12.4 7.7 9.1 80 1.7 WNW 24 41 13 22 1019.5 1019.9 0.0
29/12:30pm 11.3 8.1 9.9 91 0.7 WNW 17 32 9 17 1019.9 1020.3 0.0
29/12:00pm 10.8 8.3 9.7 93 0.6 NW 13 20 7 11 1020.1 1020.5 0.0
29/11:30am 10.7 7.7 9.3 91 0.7 NW 15 24 8 13 1020.6 1021.0 0.0
29/11:00am 10.9 6.5 8.8 87 1.0 NW 22 33 12 18 1020.6 1021.0 0.0
29/10:30am 10.5 6.6 8.8 89 0.8 NW 19 32 10 17 1020.5 1020.9 0.0
29/10:00am 10.7 6.1 8.3 85 1.2 NW 22 39 12 21 1020.5 1020.9 0.0
29/09:30am 10.2 6.0 8.1 87 1.0 NW 20 32 11 17 1020.5 1020.9 0.0
29/09:00am 10.4 5.7 7.8 84 1.3 NW 22 35 12 19 1020.3 1020.7 0.0
29/08:30am 10.2 5.5 7.6 84 1.3 NW 22 33 12 18 1020.1 1020.5 0.0
29/08:00am 9.9 5.5 7.2 83 1.3 NW 20 35 11 19 1020.1 1020.5 0.0
29/07:30am 9.9 5.4 7.0 82 1.4 NNW 20 33 11 18 1019.7 1020.1 0.0
29/07:00am 9.8 4.9 6.7 81 1.5 NNW 22 37 12 20 1019.7 1020.1 0.0
29/06:30am 9.8 4.9 6.7 81 1.5 NNW 22 33 12 18 1019.5 1019.9 0.0
29/06:00am 9.8 5.2 6.5 80 1.6 NW 20 32 11 17 1019.5 1019.9 0.0
29/05:30am 9.9 5.9 6.6 80 1.6 NW 17 30 9 16 1019.6 1020.0 0.0
29/05:00am 9.9 4.9 6.6 80 1.6 NW 22 33 12 18 1019.5 1019.9 0.0
29/04:30am 10.0 5.4 6.3 78 1.7 NW 20 32 11 17 1019.5 1019.9 0.0
29/04:00am 9.9 5.2 6.1 77 1.8 NW 20 39 11 21 1019.6 1020.0 0.0
29/03:30am 9.8 5.3 6.0 77 1.8 NW 19 30 10 16 1019.7 1020.1 0.0
29/03:00am 9.7 5.1 5.7 76 1.8 NW 19 26 10 14 1020.0 1020.4 0.0
29/02:30am 9.8 5.0 5.6 75 1.9 NW 20 35 11 19 1020.1 1020.5 0.0
29/02:00am 9.9 5.3 5.5 74 2.0 NW 19 28 10 15 1020.3 1020.7 0.0
29/01:30am 10.0 5.1 5.2 72 2.2 NW 20 32 11 17 1020.3 1020.7 0.0
29/01:00am 10.1 5.2 5.3 72 2.2 NW 20 32 11 17 1020.5 1020.9 0.0
29/12:30am 10.5 5.3 5.3 70 2.4 NW 22 32 12 17 1020.9 1021.3 0.0
29/12:00am 10.3 5.4 5.3 71 2.3 NW 20 33 11 18 1021.0 1021.4 0.0
 
Date/Time
EST
Temp
°C
App
Temp
°C
Dew
Point
°C
Rel
Hum
%
Delta-T
°C
Wind Press
QNH
hPa
Press
MSL
hPa
Rain since
9am
mm
Dir  Spd
km/h
Gust
km/h
Spd
kts
Gust
kts
28/11:30pm 10.3 6.1 5.5 72 2.2 NW 17 30 9 16 1021.4 1021.8 0.0
28/11:00pm 10.5 5.9 5.7 72 2.2 NNW 19 28 10 15 1021.5 1021.9 0.0
28/10:30pm 10.8 6.6 5.6 70 2.4 NNW 17 24 9 13 1021.9 1022.3 0.0
28/10:00pm 10.9 7.1 5.9 71 2.3 NW 15 24 8 13 1022.0 1022.4 0.0
28/09:30pm 10.8 7.5 6.2 73 2.2 NW 13 24 7 13 1022.2 1022.6 0.0
28/09:00pm 10.8 7.5 6.4 74 2.1 NW 13 24 7 13 1022.4 1022.8 0.0
28/08:30pm 10.9 7.2 6.3 73 2.2 NW 15 22 8 12 1022.4 1022.8 0.0
28/08:00pm 11.5 7.7 6.0 69 2.6 NW 15 26 8 14 1022.4 1022.8 0.0
28/07:30pm 12.1 7.6 5.9 66 2.9 NW 19 33 10 18 1022.4 1022.8 0.0
28/07:00pm 11.8 7.7 6.1 68 2.7 NW 17 24 9 13 1022.3 1022.7 0.0
28/06:30pm 11.8 8.5 6.3 69 2.6 NW 13 20 7 11 1022.3 1022.7 0.0
28/06:00pm 12.0 8.3 6.1 67 2.8 NW 15 22 8 12 1022.2 1022.6 0.0
28/05:30pm 12.1 8.4 6.2 67 2.8 NW 15 24 8 13 1021.9 1022.3 0.0
28/05:00pm 12.3 8.2 6.1 66 2.9 WNW 17 28 9 15 1021.9 1022.3 0.0
28/04:30pm 12.6 7.9 6.2 65 3.1 WNW 20 35 11 19 1021.8 1022.2 0.0
28/04:00pm 12.4 6.9 5.8 64 3.1 WNW 24 35 13 19 1022.0 1022.4 0.0
28/03:30pm 12.5 7.5 6.5 67 2.9 WNW 22 33 12 18 1021.9 1022.3 0.0

Other Formats:

Comma delimited format used in spreadsheet applications
http://www.bom.gov.au/fwo/IDV60801/IDV60801.94863.axf

JavaScript Object Notation format (JSON) in row-major order
http://www.bom.gov.au/fwo/IDV60801/IDV60801.94863.json